sensor_id;sensor_type;location;lat;lon;timestamp;pressure;altitude;pressure_sealevel;temperature;humidity
46942;BME280;32676;52.630;4.896;2023-09-07T00:01:53;100739.66;;;20.30;81.02
46942;BME280;32676;52.630;4.896;2023-09-07T00:04:23;100733.44;;;20.30;80.83
46942;BME280;32676;52.630;4.896;2023-09-07T00:06:49;100741.72;;;20.27;80.56
46942;BME280;32676;52.630;4.896;2023-09-07T00:09:16;100742.44;;;20.29;80.48
46942;BME280;32676;52.630;4.896;2023-09-07T00:11:43;100725.19;;;20.22;80.28
46942;BME280;32676;52.630;4.896;2023-09-07T00:14:12;100715.34;;;20.22;80.22
46942;BME280;32676;52.630;4.896;2023-09-07T00:16:38;100685.75;;;20.14;80.50
46942;BME280;32676;52.630;4.896;2023-09-07T00:19:05;100679.91;;;20.09;80.38
46942;BME280;32676;52.630;4.896;2023-09-07T00:21:32;100669.97;;;20.11;79.94
46942;BME280;32676;52.630;4.896;2023-09-07T00:24:00;100656.09;;;20.06;79.91
46942;BME280;32676;52.630;4.896;2023-09-07T00:26:30;100645.66;;;20.03;80.15
46942;BME280;32676;52.630;4.896;2023-09-07T00:28:57;100629.91;;;20.00;80.11
46942;BME280;32676;52.630;4.896;2023-09-07T00:31:25;100627.47;;;19.97;80.47
46942;BME280;32676;52.630;4.896;2023-09-07T00:33:52;100630.13;;;19.97;80.79
46942;BME280;32676;52.630;4.896;2023-09-07T00:36:18;100614.59;;;19.90;80.86
46942;BME280;32676;52.630;4.896;2023-09-07T00:38:45;100586.69;;;19.83;80.54
46942;BME280;32676;52.630;4.896;2023-09-07T00:41:13;100586.91;;;19.80;81.12
46942;BME280;32676;52.630;4.896;2023-09-07T00:43:39;100581.34;;;19.83;80.83
46942;BME280;32676;52.630;4.896;2023-09-07T00:46:06;100560.47;;;19.77;81.40
46942;BME280;32676;52.630;4.896;2023-09-07T00:48:34;100563.88;;;19.79;81.24
46942;BME280;32676;52.630;4.896;2023-09-07T00:51:01;100570.28;;;19.77;81.46
46942;BME280;32676;52.630;4.896;2023-09-07T00:53:28;100551.34;;;19.68;81.34
46942;BME280;32676;52.630;4.896;2023-09-07T00:55:55;100551.75;;;19.75;81.57
46942;BME280;32676;52.630;4.896;2023-09-07T00:58:22;100551.97;;;19.72;81.72
46942;BME280;32676;52.630;4.896;2023-09-07T01:00:49;100543.47;;;19.67;81.49
46942;BME280;32676;52.630;4.896;2023-09-07T01:03:16;100556.41;;;19.71;81.52
46942;BME280;32676;52.630;4.896;2023-09-07T01:05:49;100546.22;;;19.65;81.67
46942;BME280;32676;52.630;4.896;2023-09-07T01:08:21;100536.19;;;19.69;81.67
46942;BME280;32676;52.630;4.896;2023-09-07T01:10:49;100518.13;;;19.61;81.79
46942;BME280;32676;52.630;4.896;2023-09-07T01:13:16;100510.22;;;19.60;81.61
46942;BME280;32676;52.630;4.896;2023-09-07T01:15:42;100498.09;;;19.55;81.86
46942;BME280;32676;52.630;4.896;2023-09-07T01:18:09;100482.34;;;19.52;81.54
46942;BME280;32676;52.630;4.896;2023-09-07T01:20:36;100465.72;;;19.49;81.50
46942;BME280;32676;52.630;4.896;2023-09-07T01:23:07;100461.47;;;19.46;81.48
46942;BME280;32676;52.630;4.896;2023-09-07T01:25:34;100463.16;;;19.47;81.57
46942;BME280;32676;52.630;4.896;2023-09-07T01:28:00;100473.84;;;19.47;81.61
46942;BME280;32676;52.630;4.896;2023-09-07T01:30:27;100468.09;;;19.41;81.46
46942;BME280;32676;52.630;4.896;2023-09-07T01:32:54;100460.97;;;19.41;81.47
46942;BME280;32676;52.630;4.896;2023-09-07T01:35:21;100453.94;;;19.40;81.56
46942;BME280;32676;52.630;4.896;2023-09-07T01:37:48;100444.22;;;19.39;81.36
46942;BME280;32676;52.630;4.896;2023-09-07T01:40:16;100417.91;;;19.23;81.51
46942;BME280;32676;52.630;4.896;2023-09-07T01:42:43;100416.00;;;19.25;81.76
46942;BME280;32676;52.630;4.896;2023-09-07T01:45:09;100411.28;;;19.29;82.31
46942;BME280;32676;52.630;4.896;2023-09-07T01:47:36;100407.88;;;19.27;82.33
46942;BME280;32676;52.630;4.896;2023-09-07T01:50:03;100396.59;;;19.23;82.16
46942;BME280;32676;52.630;4.896;2023-09-07T01:52:29;100388.72;;;19.22;82.45
46942;BME280;32676;52.630;4.896;2023-09-07T01:54:56;100383.13;;;19.13;82.57
46942;BME280;32676;52.630;4.896;2023-09-07T01:57:24;100378.53;;;19.15;82.20
46942;BME280;32676;52.630;4.896;2023-09-07T01:59:51;100361.09;;;19.11;82.45
46942;BME280;32676;52.630;4.896;2023-09-07T02:02:17;100363.63;;;19.13;82.50
46942;BME280;32676;52.630;4.896;2023-09-07T02:04:44;100351.63;;;19.07;82.68
46942;BME280;32676;52.630;4.896;2023-09-07T02:07:11;100334.94;;;19.05;82.76
46942;BME280;32676;52.630;4.896;2023-09-07T02:09:38;100348.97;;;19.07;83.02
46942;BME280;32676;52.630;4.896;2023-09-07T02:12:05;100363.00;;;19.09;82.82
46942;BME280;32676;52.630;4.896;2023-09-07T02:14:33;100364.72;;;19.10;82.92
46942;BME280;32676;52.630;4.896;2023-09-07T02:16:59;100375.38;;;19.10;82.78
46942;BME280;32676;52.630;4.896;2023-09-07T02:19:26;100399.00;;;19.15;82.58
46942;BME280;32676;52.630;4.896;2023-09-07T02:21:52;100408.59;;;19.17;82.77
46942;BME280;32676;52.630;4.896;2023-09-07T02:24:19;100424.31;;;19.21;82.82
46942;BME280;32676;52.630;4.896;2023-09-07T02:26:45;100439.34;;;19.22;82.69
46942;BME280;32676;52.630;4.896;2023-09-07T02:29:12;100440.91;;;19.24;82.73
46942;BME280;32676;52.630;4.896;2023-09-07T02:31:40;100456.06;;;19.24;82.53
46942;BME280;32676;52.630;4.896;2023-09-07T02:34:07;100445.88;;;19.17;82.39
46942;BME280;32676;52.630;4.896;2023-09-07T02:36:34;100457.78;;;19.25;82.11
46942;BME280;32676;52.630;4.896;2023-09-07T02:39:01;100463.09;;;19.25;82.12
46942;BME280;32676;52.630;4.896;2023-09-07T02:41:27;100443.94;;;19.20;81.70
46942;BME280;32676;52.630;4.896;2023-09-07T02:43:54;100428.41;;;19.13;81.59
46942;BME280;32676;52.630;4.896;2023-09-07T02:46:20;100433.50;;;19.16;81.65
46942;BME280;32676;52.630;4.896;2023-09-07T02:48:48;100416.19;;;19.11;81.92
46942;BME280;32676;52.630;4.896;2023-09-07T02:51:15;100419.69;;;19.11;81.85
46942;BME280;32676;52.630;4.896;2023-09-07T02:53:42;100415.34;;;19.10;81.69
46942;BME280;32676;52.630;4.896;2023-09-07T02:56:09;100402.25;;;19.07;81.93
46942;BME280;32676;52.630;4.896;2023-09-07T02:58:36;100403.31;;;19.05;81.81
46942;BME280;32676;52.630;4.896;2023-09-07T03:01:05;100398.44;;;18.98;81.67
46942;BME280;32676;52.630;4.896;2023-09-07T03:03:33;100395.44;;;19.03;81.95
46942;BME280;32676;52.630;4.896;2023-09-07T03:06:08;100386.72;;;19.01;82.16
46942;BME280;32676;52.630;4.896;2023-09-07T03:08:35;100385.00;;;19.00;82.11
46942;BME280;32676;52.630;4.896;2023-09-07T03:11:02;100377.97;;;18.99;82.14
46942;BME280;32676;52.630;4.896;2023-09-07T03:13:29;100371.19;;;18.95;82.23
46942;BME280;32676;52.630;4.896;2023-09-07T03:15:56;100372.91;;;18.96;82.38
46942;BME280;32676;52.630;4.896;2023-09-07T03:18:24;100376.53;;;18.95;82.49
46942;BME280;32676;52.630;4.896;2023-09-07T03:20:53;100366.34;;;18.89;82.67
46942;BME280;32676;52.630;4.896;2023-09-07T03:23:21;100373.13;;;18.93;82.52
46942;BME280;32676;52.630;4.896;2023-09-07T03:25:48;100381.84;;;18.95;82.78
46942;BME280;32676;52.630;4.896;2023-09-07T03:28:14;100380.16;;;18.94;82.94
46942;BME280;32676;52.630;4.896;2023-09-07T03:30:41;100372.41;;;18.91;83.00
46942;BME280;32676;52.630;4.896;2023-09-07T03:33:07;100384.63;;;18.93;83.06
46942;BME280;32676;52.630;4.896;2023-09-07T03:35:34;100389.09;;;18.93;83.13
46942;BME280;32676;52.630;4.896;2023-09-07T03:38:00;100392.97;;;18.89;83.34
46942;BME280;32676;52.630;4.896;2023-09-07T03:40:29;100394.44;;;18.93;83.24
46942;BME280;32676;52.630;4.896;2023-09-07T03:42:55;100377.00;;;18.89;83.05
46942;BME280;32676;52.630;4.896;2023-09-07T03:45:22;100375.16;;;18.89;82.70
46942;BME280;32676;52.630;4.896;2023-09-07T03:47:48;100380.59;;;18.88;82.74
46942;BME280;32676;52.630;4.896;2023-09-07T03:50:15;100379.13;;;18.84;82.77
46942;BME280;32676;52.630;4.896;2023-09-07T03:52:41;100391.16;;;18.89;83.11
46942;BME280;32676;52.630;4.896;2023-09-07T03:55:08;100381.06;;;18.82;83.15
46942;BME280;32676;52.630;4.896;2023-09-07T03:57:36;100401.69;;;18.91;83.27
46942;BME280;32676;52.630;4.896;2023-09-07T04:00:03;100400.84;;;18.90;83.32
46942;BME280;32676;52.630;4.896;2023-09-07T04:02:33;100394.91;;;18.87;83.24
46942;BME280;32676;52.630;4.896;2023-09-07T04:05:00;100377.66;;;18.79;83.40
46942;BME280;32676;52.630;4.896;2023-09-07T04:07:30;100375.63;;;18.83;83.54
46942;BME280;32676;52.630;4.896;2023-09-07T04:09:56;100365.50;;;18.75;83.40
46942;BME280;32676;52.630;4.896;2023-09-07T04:12:23;100368.69;;;18.80;83.26
46942;BME280;32676;52.630;4.896;2023-09-07T04:14:52;100368.69;;;18.80;83.43
46942;BME280;32676;52.630;4.896;2023-09-07T04:17:18;100367.22;;;18.76;83.27
46942;BME280;32676;52.630;4.896;2023-09-07T04:19:45;100361.03;;;18.76;83.40
46942;BME280;32676;52.630;4.896;2023-09-07T04:22:11;100349.78;;;18.72;83.29
46942;BME280;32676;52.630;4.896;2023-09-07T04:24:38;100347.22;;;18.71;83.26
46942;BME280;32676;52.630;4.896;2023-09-07T04:27:04;100332.34;;;18.68;83.22
46942;BME280;32676;52.630;4.896;2023-09-07T04:29:31;100333.31;;;18.67;83.33
46942;BME280;32676;52.630;4.896;2023-09-07T04:31:59;100329.06;;;18.65;83.53
46942;BME280;32676;52.630;4.896;2023-09-07T04:34:25;100322.13;;;18.62;83.80
46942;BME280;32676;52.630;4.896;2023-09-07T04:36:52;100327.47;;;18.62;83.91
46942;BME280;32676;52.630;4.896;2023-09-07T04:39:18;100325.53;;;18.64;84.03
46942;BME280;32676;52.630;4.896;2023-09-07T04:41:45;100325.78;;;18.61;83.93
46942;BME280;32676;52.630;4.896;2023-09-07T04:44:11;100307.47;;;18.56;83.89
46942;BME280;32676;52.630;4.896;2023-09-07T04:46:38;100320.47;;;18.61;84.02
46942;BME280;32676;52.630;4.896;2023-09-07T04:49:06;100334.50;;;18.63;84.17
46942;BME280;32676;52.630;4.896;2023-09-07T04:51:33;100332.16;;;18.58;83.61
46942;BME280;32676;52.630;4.896;2023-09-07T04:53:59;100332.16;;;18.58;83.97
46942;BME280;32676;52.630;4.896;2023-09-07T04:56:26;100331.09;;;18.61;84.04
46942;BME280;32676;52.630;4.896;2023-09-07T04:58:54;100341.75;;;18.61;84.05
46942;BME280;32676;52.630;4.896;2023-09-07T05:01:20;100326.84;;;18.58;84.04
46942;BME280;32676;52.630;4.896;2023-09-07T05:03:47;100325.16;;;18.57;83.94
46942;BME280;32676;52.630;4.896;2023-09-07T05:06:16;100324.28;;;18.57;83.93
46942;BME280;32676;52.630;4.896;2023-09-07T05:08:43;100325.28;;;18.56;83.82
46942;BME280;32676;52.630;4.896;2023-09-07T05:11:09;100320.91;;;18.55;83.80
46942;BME280;32676;52.630;4.896;2023-09-07T05:13:36;100318.34;;;18.53;84.03
46942;BME280;32676;52.630;4.896;2023-09-07T05:16:02;100314.09;;;18.51;83.69
46942;BME280;32676;52.630;4.896;2023-09-07T05:18:30;100312.41;;;18.50;83.55
46942;BME280;32676;52.630;4.896;2023-09-07T05:20:56;100305.41;;;18.49;83.53
46942;BME280;32676;52.630;4.896;2023-09-07T05:23:24;100309.00;;;18.48;83.48
46942;BME280;32676;52.630;4.896;2023-09-07T05:25:53;100317.72;;;18.50;83.80
46942;BME280;32676;52.630;4.896;2023-09-07T05:28:21;100350.06;;;18.56;83.56
46942;BME280;32676;52.630;4.896;2023-09-07T05:30:48;100358.78;;;18.58;83.51
46942;BME280;32676;52.630;4.896;2023-09-07T05:33:16;100389.41;;;18.64;83.60
46942;BME280;32676;52.630;4.896;2023-09-07T05:35:43;100401.97;;;18.62;83.46
46942;BME280;32676;52.630;4.896;2023-09-07T05:38:11;100445.34;;;18.75;83.29
46942;BME280;32676;52.630;4.896;2023-09-07T05:40:41;100468.91;;;18.82;82.81
46942;BME280;32676;52.630;4.896;2023-09-07T05:43:08;100494.34;;;18.86;82.65
46942;BME280;32676;52.630;4.896;2023-09-07T05:45:36;100514.72;;;18.87;82.50
46942;BME280;32676;52.630;4.896;2023-09-07T05:48:04;100542.44;;;18.95;82.10
46942;BME280;32676;52.630;4.896;2023-09-07T05:50:33;100552.25;;;18.95;82.10
46942;BME280;32676;52.630;4.896;2023-09-07T05:52:59;100585.38;;;19.04;81.91
46942;BME280;32676;52.630;4.896;2023-09-07T05:55:26;100572.72;;;18.94;81.65
46942;BME280;32676;52.630;4.896;2023-09-07T05:57:55;100592.28;;;19.06;81.76
46942;BME280;32676;52.630;4.896;2023-09-07T06:00:22;100605.50;;;19.08;81.68
46942;BME280;32676;52.630;4.896;2023-09-07T06:02:49;100622.22;;;19.10;81.61
46942;BME280;32676;52.630;4.896;2023-09-07T06:05:16;100648.53;;;19.14;81.77
46942;BME280;32676;52.630;4.896;2023-09-07T06:07:43;100666.00;;;19.18;81.62
46942;BME280;32676;52.630;4.896;2023-09-07T06:10:10;100685.38;;;19.21;81.64
46942;BME280;32676;52.630;4.896;2023-09-07T06:12:36;100710.09;;;19.23;81.26
46942;BME280;32676;52.630;4.896;2023-09-07T06:15:05;100742.06;;;19.35;81.12
46942;BME280;32676;52.630;4.896;2023-09-07T06:17:32;100782.44;;;19.42;81.27
46942;BME280;32676;52.630;4.896;2023-09-07T06:19:59;100809.63;;;19.47;81.09
46942;BME280;32676;52.630;4.896;2023-09-07T06:22:25;100841.41;;;19.50;81.18
46942;BME280;32676;52.630;4.896;2023-09-07T06:24:52;100886.81;;;19.62;81.10
46942;BME280;32676;52.630;4.896;2023-09-07T06:27:18;100927.78;;;19.73;81.23
46942;BME280;32676;52.630;4.896;2023-09-07T06:29:45;100968.03;;;19.83;81.16
46942;BME280;32676;52.630;4.896;2023-09-07T06:32:13;101014.56;;;19.92;81.07
46942;BME280;32676;52.630;4.896;2023-09-07T06:34:39;101058.41;;;20.01;81.23
46942;BME280;32676;52.630;4.896;2023-09-07T06:37:06;101113.59;;;20.13;81.26
46942;BME280;32676;52.630;4.896;2023-09-07T06:39:33;101167.97;;;20.25;81.18
46942;BME280;32676;52.630;4.896;2023-09-07T06:42:00;101205.75;;;20.31;81.40
46942;BME280;32676;52.630;4.896;2023-09-07T06:44:28;101260.31;;;20.40;81.25
46942;BME280;32676;52.630;4.896;2023-09-07T06:46:55;101310.88;;;20.56;81.30
46942;BME280;32676;52.630;4.896;2023-09-07T06:49:23;101372.47;;;20.67;81.53
46942;BME280;32676;52.630;4.896;2023-09-07T06:51:49;101418.25;;;20.76;81.47
46942;BME280;32676;52.630;4.896;2023-09-07T06:54:16;101472.56;;;20.89;81.55
46942;BME280;32676;52.630;4.896;2023-09-07T06:56:42;101521.78;;;20.99;81.60
46942;BME280;32676;52.630;4.896;2023-09-07T06:59:09;101588.53;;;21.14;81.66
46942;BME280;32676;52.630;4.896;2023-09-07T07:01:35;101621.91;;;21.21;81.49
46942;BME280;32676;52.630;4.896;2023-09-07T07:04:02;101670.41;;;21.29;81.10
46942;BME280;32676;52.630;4.896;2023-09-07T07:06:30;101727.50;;;21.42;80.76
46942;BME280;32676;52.630;4.896;2023-09-07T07:08:56;101775.06;;;21.52;80.42
46942;BME280;32676;52.630;4.896;2023-09-07T07:11:23;101829.53;;;21.65;79.48
46942;BME280;32676;52.630;4.896;2023-09-07T07:13:49;101882.47;;;21.74;78.77
46942;BME280;32676;52.630;4.896;2023-09-07T07:16:16;101917.59;;;21.82;78.44
46942;BME280;32676;52.630;4.896;2023-09-07T07:18:43;101974.88;;;21.94;77.76
46942;BME280;32676;52.630;4.896;2023-09-07T07:21:09;102009.00;;;22.05;77.26
46942;BME280;32676;52.630;4.896;2023-09-07T07:23:37;102047.81;;;22.12;76.95
46942;BME280;32676;52.630;4.896;2023-09-07T07:26:03;102093.72;;;22.20;76.68
46942;BME280;32676;52.630;4.896;2023-09-07T07:28:30;102135.09;;;22.31;76.14
46942;BME280;32676;52.630;4.896;2023-09-07T07:30:57;102165.91;;;22.38;75.31
46942;BME280;32676;52.630;4.896;2023-09-07T07:33:23;102182.72;;;22.40;74.84
46942;BME280;32676;52.630;4.896;2023-09-07T07:35:50;102202.06;;;22.45;74.47
46942;BME280;32676;52.630;4.896;2023-09-07T07:38:16;102234.59;;;22.53;74.24
46942;BME280;32676;52.630;4.896;2023-09-07T07:40:46;102253.94;;;22.58;74.45
46942;BME280;32676;52.630;4.896;2023-09-07T07:43:12;102280.34;;;22.65;73.87
46942;BME280;32676;52.630;4.896;2023-09-07T07:45:39;102305.94;;;22.70;73.46
46942;BME280;32676;52.630;4.896;2023-09-07T07:48:06;102324.41;;;22.75;73.06
46942;BME280;32676;52.630;4.896;2023-09-07T07:50:36;102356.19;;;22.81;73.30
46942;BME280;32676;52.630;4.896;2023-09-07T07:53:03;102379.19;;;22.85;73.63
46942;BME280;32676;52.630;4.896;2023-09-07T07:55:29;102383.50;;;22.88;72.59
46942;BME280;32676;52.630;4.896;2023-09-07T07:57:57;102402.00;;;22.92;72.01
46942;BME280;32676;52.630;4.896;2023-09-07T08:00:24;102428.44;;;22.98;71.88
46942;BME280;32676;52.630;4.896;2023-09-07T08:02:50;102452.41;;;23.02;71.29
46942;BME280;32676;52.630;4.896;2023-09-07T08:05:17;102453.03;;;23.07;71.11
46942;BME280;32676;52.630;4.896;2023-09-07T08:07:43;102491.13;;;23.12;71.22
46942;BME280;32676;52.630;4.896;2023-09-07T08:10:10;102523.75;;;23.20;71.00
46942;BME280;32676;52.630;4.896;2023-09-07T08:12:36;102553.66;;;23.28;70.59
46942;BME280;32676;52.630;4.896;2023-09-07T08:15:05;102571.31;;;23.32;70.06
46942;BME280;32676;52.630;4.896;2023-09-07T08:17:31;102594.31;;;23.36;69.82
46942;BME280;32676;52.630;4.896;2023-09-07T08:19:59;102626.06;;;23.44;70.12
46942;BME280;32676;52.630;4.896;2023-09-07T08:22:25;102645.53;;;23.48;70.24
46942;BME280;32676;52.630;4.896;2023-09-07T08:24:53;102663.00;;;23.55;69.95
46942;BME280;32676;52.630;4.896;2023-09-07T08:27:20;102678.94;;;23.58;69.46
46942;BME280;32676;52.630;4.896;2023-09-07T08:29:47;102712.53;;;23.65;69.52
46942;BME280;32676;52.630;4.896;2023-09-07T08:32:18;102739.00;;;23.71;70.28
46942;BME280;32676;52.630;4.896;2023-09-07T08:34:44;102770.78;;;23.79;70.31
46942;BME280;32676;52.630;4.896;2023-09-07T08:37:11;102803.53;;;23.86;69.16
46942;BME280;32676;52.630;4.896;2023-09-07T08:39:37;102827.34;;;23.92;68.87
46942;BME280;32676;52.630;4.896;2023-09-07T08:42:05;102846.75;;;23.97;67.46
46942;BME280;32676;52.630;4.896;2023-09-07T08:44:33;102875.00;;;24.04;67.14
46942;BME280;32676;52.630;4.896;2023-09-07T08:47:01;102891.13;;;24.04;66.97
46942;BME280;32676;52.630;4.896;2023-09-07T08:49:30;102931.66;;;24.15;67.16
46942;BME280;32676;52.630;4.896;2023-09-07T08:51:58;102949.38;;;24.20;66.96
46942;BME280;32676;52.630;4.896;2023-09-07T08:54:26;102969.56;;;24.27;66.48
46942;BME280;32676;52.630;4.896;2023-09-07T08:56:53;102977.63;;;24.27;66.06
46942;BME280;32676;52.630;4.896;2023-09-07T08:59:22;102986.25;;;24.32;65.33
46942;BME280;32676;52.630;4.896;2023-09-07T09:01:48;103001.28;;;24.36;64.67
46942;BME280;32676;52.630;4.896;2023-09-07T09:04:15;103026.06;;;24.41;64.90
46942;BME280;32676;52.630;4.896;2023-09-07T09:06:43;103041.84;;;24.47;65.00
46942;BME280;32676;52.630;4.896;2023-09-07T09:09:10;103069.38;;;24.52;64.45
46942;BME280;32676;52.630;4.896;2023-09-07T09:11:38;103080.84;;;24.56;63.67
46942;BME280;32676;52.630;4.896;2023-09-07T09:14:05;103085.16;;;24.59;63.29
46942;BME280;32676;52.630;4.896;2023-09-07T09:16:31;103110.81;;;24.64;63.54
46942;BME280;32676;52.630;4.896;2023-09-07T09:18:59;103139.97;;;24.72;64.39
46942;BME280;32676;52.630;4.896;2023-09-07T09:21:26;103170.00;;;24.80;64.34
46942;BME280;32676;52.630;4.896;2023-09-07T09:23:55;103169.06;;;24.81;63.62
46942;BME280;32676;52.630;4.896;2023-09-07T09:26:22;103180.50;;;24.85;63.08
46942;BME280;32676;52.630;4.896;2023-09-07T09:28:49;103200.81;;;24.90;63.25
46942;BME280;32676;52.630;4.896;2023-09-07T09:31:17;103205.22;;;24.91;62.41
46942;BME280;32676;52.630;4.896;2023-09-07T09:33:48;103224.69;;;24.97;62.39
46942;BME280;32676;52.630;4.896;2023-09-07T09:36:14;103222.94;;;24.96;61.82
46942;BME280;32676;52.630;4.896;2023-09-07T09:38:47;103240.47;;;25.03;61.50
46942;BME280;32676;52.630;4.896;2023-09-07T09:41:16;103259.91;;;25.08;61.83
46942;BME280;32676;52.630;4.896;2023-09-07T09:43:43;103285.53;;;25.15;61.00
46942;BME280;32676;52.630;4.896;2023-09-07T09:46:12;103299.00;;;25.15;60.09
46942;BME280;32676;52.630;4.896;2023-09-07T09:48:39;103313.81;;;25.24;59.22
46942;BME280;32676;52.630;4.896;2023-09-07T09:51:07;103318.13;;;25.26;58.79
46942;BME280;32676;52.630;4.896;2023-09-07T09:53:34;103318.13;;;25.26;59.49
46942;BME280;32676;52.630;4.896;2023-09-07T09:56:02;103321.53;;;25.30;59.91
46942;BME280;32676;52.630;4.896;2023-09-07T09:58:29;103355.31;;;25.36;60.62
46942;BME280;32676;52.630;4.896;2023-09-07T10:01:00;103384.41;;;25.45;60.40
46942;BME280;32676;52.630;4.896;2023-09-07T10:03:32;103420.81;;;25.52;59.75
46942;BME280;32676;52.630;4.896;2023-09-07T10:06:07;103429.50;;;25.57;59.06
46942;BME280;32676;52.630;4.896;2023-09-07T10:08:34;103466.91;;;25.63;59.45
46942;BME280;32676;52.630;4.896;2023-09-07T10:11:07;103489.84;;;25.71;58.37
46942;BME280;32676;52.630;4.896;2023-09-07T10:13:35;103503.91;;;25.76;59.29
46942;BME280;32676;52.630;4.896;2023-09-07T10:16:02;103535.75;;;25.85;59.83
46942;BME280;32676;52.630;4.896;2023-09-07T10:18:33;103558.88;;;25.89;59.67
46942;BME280;32676;52.630;4.896;2023-09-07T10:21:00;103571.25;;;25.93;59.36
46942;BME280;32676;52.630;4.896;2023-09-07T10:23:36;103596.13;;;25.98;58.10
46942;BME280;32676;52.630;4.896;2023-09-07T10:26:03;103629.69;;;26.09;57.99
46942;BME280;32676;52.630;4.896;2023-09-07T10:28:30;103650.94;;;26.15;58.82
46942;BME280;32676;52.630;4.896;2023-09-07T10:30:59;103656.19;;;26.18;59.15
46942;BME280;32676;52.630;4.896;2023-09-07T10:33:27;103666.78;;;26.21;58.68
46942;BME280;32676;52.630;4.896;2023-09-07T10:35:54;103684.44;;;26.27;59.13
46942;BME280;32676;52.630;4.896;2023-09-07T10:38:22;103684.56;;;26.25;58.95
46942;BME280;32676;52.630;4.896;2023-09-07T10:40:54;103702.31;;;26.29;58.79
46942;BME280;32676;52.630;4.896;2023-09-07T10:43:22;103722.41;;;26.39;57.70
46942;BME280;32676;52.630;4.896;2023-09-07T10:45:49;103744.59;;;26.44;58.03
46942;BME280;32676;52.630;4.896;2023-09-07T10:48:17;103766.03;;;26.48;57.79
46942;BME280;32676;52.630;4.896;2023-09-07T10:50:44;103780.94;;;26.55;57.43
46942;BME280;32676;52.630;4.896;2023-09-07T10:53:12;103790.59;;;26.59;56.98
46942;BME280;32676;52.630;4.896;2023-09-07T10:55:39;103809.28;;;26.64;57.01
46942;BME280;32676;52.630;4.896;2023-09-07T10:58:06;103813.63;;;26.66;56.87
46942;BME280;32676;52.630;4.896;2023-09-07T11:00:34;103834.00;;;26.72;57.85
46942;BME280;32676;52.630;4.896;2023-09-07T11:03:07;103845.50;;;26.75;57.42
46942;BME280;32676;52.630;4.896;2023-09-07T11:05:36;103863.25;;;26.79;57.46
46942;BME280;32676;52.630;4.896;2023-09-07T11:08:04;103878.34;;;26.84;57.37
46942;BME280;32676;52.630;4.896;2023-09-07T11:10:32;103896.91;;;26.90;56.50
46942;BME280;32676;52.630;4.896;2023-09-07T11:13:01;103925.31;;;26.97;57.30
46942;BME280;32676;52.630;4.896;2023-09-07T11:15:29;103946.56;;;27.03;56.76
46942;BME280;32676;52.630;4.896;2023-09-07T11:17:57;103962.47;;;27.09;55.25
46942;BME280;32676;52.630;4.896;2023-09-07T11:20:24;103980.22;;;27.13;54.87
46942;BME280;32676;52.630;4.896;2023-09-07T11:22:53;103988.19;;;27.16;55.62
46942;BME280;32676;52.630;4.896;2023-09-07T11:25:20;103980.06;;;27.16;55.74
46942;BME280;32676;52.630;4.896;2023-09-07T11:27:46;103996.91;;;27.22;55.06
46942;BME280;32676;52.630;4.896;2023-09-07T11:30:13;104006.59;;;27.26;56.14
46942;BME280;32676;52.630;4.896;2023-09-07T11:32:39;104022.66;;;27.29;56.05
46942;BME280;32676;52.630;4.896;2023-09-07T11:35:09;104036.00;;;27.32;55.17
46942;BME280;32676;52.630;4.896;2023-09-07T11:37:35;104044.56;;;27.40;54.43
46942;BME280;32676;52.630;4.896;2023-09-07T11:40:05;104067.75;;;27.44;55.01
46942;BME280;32676;52.630;4.896;2023-09-07T11:42:37;104079.19;;;27.49;54.51
46942;BME280;32676;52.630;4.896;2023-09-07T11:45:06;104091.56;;;27.53;54.10
46942;BME280;32676;52.630;4.896;2023-09-07T11:47:34;104085.22;;;27.54;55.07
46942;BME280;32676;52.630;4.896;2023-09-07T11:52:37;104044.06;;;27.49;54.45
46942;BME280;32676;52.630;4.896;2023-09-07T11:55:05;104064.41;;;27.56;54.07
46942;BME280;32676;52.630;4.896;2023-09-07T11:57:31;104076.78;;;27.61;54.26
46942;BME280;32676;52.630;4.896;2023-09-07T11:59:58;104071.38;;;27.61;53.62
46942;BME280;32676;52.630;4.896;2023-09-07T12:02:24;104067.75;;;27.62;53.71
46942;BME280;32676;52.630;4.896;2023-09-07T12:04:51;104063.19;;;27.62;52.12
46942;BME280;32676;52.630;4.896;2023-09-07T12:07:19;104083.59;;;27.68;53.10
46942;BME280;32676;52.630;4.896;2023-09-07T12:09:46;104075.50;;;27.68;51.74
46942;BME280;32676;52.630;4.896;2023-09-07T12:12:15;104091.47;;;27.72;51.95
46942;BME280;32676;52.630;4.896;2023-09-07T12:14:41;104088.22;;;27.66;53.28
46942;BME280;32676;52.630;4.896;2023-09-07T12:17:08;104119.72;;;27.83;52.64
46942;BME280;32676;52.630;4.896;2023-09-07T12:19:34;104124.13;;;27.85;51.11
46942;BME280;32676;52.630;4.896;2023-09-07T12:22:01;104118.72;;;27.85;51.06
46942;BME280;32676;52.630;4.896;2023-09-07T12:24:28;104134.63;;;27.91;51.01
46942;BME280;32676;52.630;4.896;2023-09-07T12:26:55;104151.47;;;27.97;53.37
46942;BME280;32676;52.630;4.896;2023-09-07T12:29:22;104159.41;;;28.00;54.03
46942;BME280;32676;52.630;4.896;2023-09-07T12:31:49;104155.75;;;28.01;53.58
46942;BME280;32676;52.630;4.896;2023-09-07T12:34:15;104155.66;;;28.02;53.84
46942;BME280;32676;52.630;4.896;2023-09-07T12:36:42;104155.59;;;28.04;54.40
46942;BME280;32676;52.630;4.896;2023-09-07T12:39:08;104153.69;;;28.06;54.55
46942;BME280;32676;52.630;4.896;2023-09-07T12:41:37;104142.16;;;28.02;54.60
46942;BME280;32676;52.630;4.896;2023-09-07T12:44:04;104133.97;;;28.04;54.48
46942;BME280;32676;52.630;4.896;2023-09-07T12:46:32;104133.97;;;28.04;55.35
46942;BME280;32676;52.630;4.896;2023-09-07T12:48:59;104121.31;;;28.04;55.27
46942;BME280;32676;52.630;4.896;2023-09-07T12:51:25;104121.22;;;28.06;55.34
46942;BME280;32676;52.630;4.896;2023-09-07T12:53:52;104119.47;;;28.05;54.18